Time;durP1;ratioP1;P1;durP2;ratioP2;P2;SDS_P1;SDS_P2;PMS_P1;PMS_P2;Temp;Humidity;BMP_temperature;BMP_pressure;BME280_temperature;BME280_humidity;BME280_pressure;Samples;Min_cycle;Max_cycle;Signal;HPM_P1;HPM_P2
2022/01/17 00:01:36;;;;;;;49.63;23.95;;;;;;;;;;5070792;28;20077;-73
2022/01/17 00:04:02;;;;;;;48.90;24.95;;;;;;;;;;5071055;28;20033;-73
2022/01/17 00:06:28;;;;;;;55.97;26.60;;;;;;;;;;5077709;28;20121;-73
2022/01/17 00:08:54;;;;;;;60.13;29.83;;;;;;;;;;5070679;28;20068;-73
2022/01/17 00:11:20;;;;;;;60.47;29.88;;;;;;;;;;5078324;28;20072;-73
2022/01/17 00:13:47;;;;;;;49.58;25.40;;;;;;;;;;5051558;28;20033;-73
2022/01/17 00:16:18;;;;;;;44.58;22.38;;;;;;;;;;5078177;28;20771;-73
2022/01/17 00:21:14;;;;;;;39.63;19.95;;;;;;;;;;5070434;28;20072;-73
2022/01/17 00:23:40;;;;;;;43.42;22.13;;;;;;;;;;5070498;28;20684;-73
2022/01/17 00:26:06;;;;;;;36.42;19.73;;;;;;;;;;5074010;28;20028;-73
2022/01/17 00:28:32;;;;;;;41.92;21.35;;;;;;;;;;5070906;28;20069;-73
2022/01/17 00:31:04;;;;;;;43.05;20.15;;;;;;;;;;5078556;28;20142;-73
2022/01/17 00:33:31;;;;;;;41.55;20.27;;;;;;;;;;5086053;28;20110;-73
2022/01/17 00:35:57;;;;;;;47.60;22.13;;;;;;;;;;5082049;28;20145;-73
2022/01/17 00:38:23;;;;;;;37.80;18.48;;;;;;;;;;5070355;28;20035;-73
2022/01/17 00:40:49;;;;;;;35.70;17.30;;;;;;;;;;5070946;28;20149;-73
2022/01/17 00:43:15;;;;;;;41.50;18.75;;;;;;;;;;5090420;28;20028;-73
2022/01/17 00:45:43;;;;;;;42.15;19.40;;;;;;;;;;5089707;28;20024;-73
2022/01/17 00:48:10;;;;;;;43.42;22.23;;;;;;;;;;5089536;28;20101;-73
2022/01/17 00:50:37;;;;;;;43.10;20.58;;;;;;;;;;5086012;28;20043;-73
2022/01/17 00:53:04;;;;;;;38.17;18.83;;;;;;;;;;5076908;28;20921;-73
2022/01/17 00:55:34;;;;;;;39.60;19.35;;;;;;;;;;5073663;28;20470;-73
2022/01/17 00:58:00;;;;;;;39.90;19.83;;;;;;;;;;5077329;28;20078;-73
2022/01/17 01:00:27;;;;;;;40.72;20.13;;;;;;;;;;5089083;28;20032;-73
2022/01/17 01:02:53;;;;;;;35.58;18.25;;;;;;;;;;5076539;28;20060;-73
2022/01/17 01:05:19;;;;;;;37.13;19.13;;;;;;;;;;5086128;28;20036;-73
2022/01/17 01:07:45;;;;;;;39.17;17.70;;;;;;;;;;5072066;28;20036;-73
2022/01/17 01:10:11;;;;;;;33.25;16.52;;;;;;;;;;5084511;28;20067;-73
2022/01/17 01:12:41;;;;;;;32.38;15.27;;;;;;;;;;5069697;28;20028;-73
2022/01/17 01:15:12;;;;;;;26.92;13.93;;;;;;;;;;5081657;28;20028;-73
2022/01/17 01:17:53;;;;;;;27.45;14.10;;;;;;;;;;5071333;28;20481;-73
2022/01/17 01:28:25;;;;;;;23.77;12.30;;;;;;;;;;5082566;28;20054;-73
2022/01/17 01:30:53;;;;;;;24.08;11.98;;;;;;;;;;5082754;28;20032;-73
2022/01/17 01:33:27;;;;;;;29.17;13.50;;;;;;;;;;5089494;28;20027;-73
2022/01/17 01:36:00;;;;;;;25.35;12.00;;;;;;;;;;5072849;28;20032;-73
2022/01/17 01:38:26;;;;;;;27.67;13.23;;;;;;;;;;5074575;28;20025;-73
2022/01/17 01:40:52;;;;;;;32.20;14.00;;;;;;;;;;5070293;28;20481;-73
2022/01/17 01:43:18;;;;;;;26.58;12.35;;;;;;;;;;5089535;28;20103;-73
2022/01/17 01:45:48;;;;;;;21.00;10.80;;;;;;;;;;5088200;28;20111;-73
2022/01/17 01:48:14;;;;;;;23.63;11.60;;;;;;;;;;5082561;28;20035;-73
2022/01/17 01:50:40;;;;;;;25.60;12.20;;;;;;;;;;5068799;28;20146;-73
2022/01/17 01:53:06;;;;;;;27.63;13.23;;;;;;;;;;5085546;28;20451;-73
2022/01/17 01:55:32;;;;;;;21.33;10.75;;;;;;;;;;5071225;28;20131;-73
2022/01/17 01:57:58;;;;;;;25.42;12.50;;;;;;;;;;5088670;28;20031;-73
2022/01/17 02:00:24;;;;;;;28.70;13.82;;;;;;;;;;5087111;28;20663;-73
2022/01/17 02:02:50;;;;;;;28.52;12.85;;;;;;;;;;5073012;28;20024;-73
2022/01/17 02:05:16;;;;;;;23.10;11.85;;;;;;;;;;5088911;28;20119;-73
2022/01/17 02:07:43;;;;;;;24.48;11.52;;;;;;;;;;5089170;28;20060;-74
2022/01/17 02:10:09;;;;;;;20.77;10.75;;;;;;;;;;5088790;28;20103;-72
2022/01/17 02:12:35;;;;;;;21.58;11.25;;;;;;;;;;5088345;28;20124;-73
2022/01/17 02:15:02;;;;;;;20.40;9.73;;;;;;;;;;5075189;28;20067;-73
2022/01/17 02:17:32;;;;;;;24.67;10.85;;;;;;;;;;5085422;28;20024;-73
2022/01/17 02:20:06;;;;;;;18.45;9.20;;;;;;;;;;5088797;28;20028;-73
2022/01/17 02:22:32;;;;;;;24.70;10.45;;;;;;;;;;5074179;28;20063;-73
2022/01/17 02:24:58;;;;;;;21.00;11.18;;;;;;;;;;5079972;28;20036;-73
2022/01/17 02:27:25;;;;;;;23.67;12.07;;;;;;;;;;5087619;28;20027;-73
2022/01/17 02:29:51;;;;;;;23.48;11.70;;;;;;;;;;5088837;28;20514;-73
2022/01/17 02:32:17;;;;;;;24.98;9.88;;;;;;;;;;5068545;28;20028;-74
2022/01/17 02:34:43;;;;;;;21.67;10.10;;;;;;;;;;5073210;28;20032;-73
2022/01/17 02:37:10;;;;;;;17.88;9.02;;;;;;;;;;5091447;28;20031;-73
2022/01/17 02:39:36;;;;;;;17.63;8.65;;;;;;;;;;5078699;28;20083;-73
2022/01/17 02:42:02;;;;;;;16.23;8.73;;;;;;;;;;5081423;28;20028;-73
2022/01/17 02:44:28;;;;;;;20.65;7.75;;;;;;;;;;5092261;28;20135;-73
2022/01/17 02:46:55;;;;;;;18.02;8.38;;;;;;;;;;5083608;28;20036;-73
2022/01/17 02:49:21;;;;;;;16.55;8.15;;;;;;;;;;5081288;28;20033;-73
2022/01/17 02:51:48;;;;;;;17.42;7.60;;;;;;;;;;5089256;28;20111;-73
2022/01/17 02:54:17;;;;;;;15.80;6.75;;;;;;;;;;5089797;28;20032;-73
2022/01/17 02:56:43;;;;;;;15.23;7.32;;;;;;;;;;5078907;28;20067;-73
2022/01/17 02:59:09;;;;;;;14.77;6.45;;;;;;;;;;5091438;28;20044;-73
2022/01/17 03:01:35;;;;;;;16.20;7.72;;;;;;;;;;5071671;28;20096;-73
2022/01/17 03:04:01;;;;;;;13.60;7.20;;;;;;;;;;5089666;28;20040;-73
2022/01/17 03:06:28;;;;;;;14.55;7.45;;;;;;;;;;5074031;28;20040;-73
2022/01/17 03:08:54;;;;;;;11.93;6.57;;;;;;;;;;5089004;28;20386;-73
2022/01/17 03:11:22;;;;;;;13.75;6.93;;;;;;;;;;5072167;28;20077;-73
2022/01/17 03:13:50;;;;;;;13.07;5.75;;;;;;;;;;5077994;28;20105;-73
2022/01/17 03:16:16;;;;;;;14.60;6.88;;;;;;;;;;5081039;28;20032;-73
2022/01/17 03:18:44;;;;;;;13.20;7.13;;;;;;;;;;5091556;28;20060;-73
2022/01/17 03:21:11;;;;;;;13.68;6.40;;;;;;;;;;5072399;28;20051;-73
2022/01/17 03:23:38;;;;;;;14.05;6.30;;;;;;;;;;5081197;28;20438;-72
2022/01/17 03:26:05;;;;;;;11.75;6.18;;;;;;;;;;5070154;28;20048;-73
2022/01/17 03:28:31;;;;;;;10.65;5.15;;;;;;;;;;5088616;28;20047;-73
2022/01/17 03:30:58;;;;;;;13.32;5.88;;;;;;;;;;5091608;28;20047;-73
2022/01/17 03:33:24;;;;;;;11.85;5.15;;;;;;;;;;5084652;28;20516;-73
2022/01/17 03:35:50;;;;;;;10.57;5.22;;;;;;;;;;5075937;28;20036;-73
2022/01/17 03:38:18;;;;;;;9.52;4.82;;;;;;;;;;5080927;28;20047;-73
2022/01/17 03:40:48;;;;;;;9.25;4.50;;;;;;;;;;5091784;28;20048;-73
2022/01/17 03:43:15;;;;;;;12.55;5.22;;;;;;;;;;5091086;28;20042;-73
2022/01/17 03:45:41;;;;;;;11.30;5.45;;;;;;;;;;5087558;28;20097;-73
2022/01/17 03:48:08;;;;;;;10.05;4.90;;;;;;;;;;5071104;28;20032;-73
2022/01/17 03:50:34;;;;;;;10.98;5.05;;;;;;;;;;5091333;28;20037;-73
2022/01/17 03:53:00;;;;;;;10.23;4.75;;;;;;;;;;5073128;28;20444;-73
2022/01/17 03:55:28;;;;;;;12.60;4.82;;;;;;;;;;5090056;28;20036;-73
2022/01/17 03:57:54;;;;;;;10.30;4.43;;;;;;;;;;5091423;28;20455;-73
2022/01/17 04:00:23;;;;;;;10.50;5.03;;;;;;;;;;5090259;28;20040;-73
2022/01/17 04:02:50;;;;;;;12.32;4.85;;;;;;;;;;5078038;28;20029;-73
2022/01/17 04:05:16;;;;;;;9.50;5.15;;;;;;;;;;5080907;28;20040;-73
2022/01/17 04:07:42;;;;;;;9.43;4.35;;;;;;;;;;5080565;28;20372;-73
2022/01/17 04:10:08;;;;;;;11.23;5.57;;;;;;;;;;5088869;28;20051;-73
2022/01/17 04:12:34;;;;;;;10.55;5.25;;;;;;;;;;5082298;28;20395;-73
2022/01/17 04:15:00;;;;;;;9.27;4.30;;;;;;;;;;5086422;28;20057;-73
2022/01/17 04:17:29;;;;;;;10.27;5.22;;;;;;;;;;5077074;28;20021;-73
2022/01/17 04:20:05;;;;;;;13.38;5.72;;;;;;;;;;5083333;28;20028;-73
2022/01/17 04:22:38;;;;;;;12.57;5.90;;;;;;;;;;5071051;28;20029;-73
2022/01/17 04:25:05;;;;;;;14.07;6.90;;;;;;;;;;5080317;28;20040;-73
2022/01/17 04:27:31;;;;;;;17.15;8.40;;;;;;;;;;5070251;28;20024;-73
2022/01/17 04:29:57;;;;;;;15.68;7.57;;;;;;;;;;5069758;28;20138;-73
2022/01/17 04:32:24;;;;;;;14.60;7.05;;;;;;;;;;5082848;28;20063;-73
2022/01/17 04:34:50;;;;;;;13.35;7.75;;;;;;;;;;5069538;28;20111;-74
2022/01/17 04:37:16;;;;;;;13.45;7.35;;;;;;;;;;5082615;28;20099;-73
2022/01/17 04:39:42;;;;;;;14.73;7.82;;;;;;;;;;5069501;28;20491;-73
2022/01/17 04:42:12;;;;;;;14.25;7.03;;;;;;;;;;5072362;28;20363;-73
2022/01/17 04:47:25;;;;;;;16.23;8.80;;;;;;;;;;5077856;28;20052;-73
2022/01/17 04:49:52;;;;;;;18.35;9.75;;;;;;;;;;5084063;28;20036;-73
2022/01/17 04:52:18;;;;;;;18.02;9.68;;;;;;;;;;5082595;28;20039;-73
2022/01/17 04:54:51;;;;;;;15.32;8.27;;;;;;;;;;5089816;28;20040;-73
2022/01/17 04:57:17;;;;;;;18.25;8.05;;;;;;;;;;5089199;28;20020;-73
2022/01/17 04:59:44;;;;;;;18.80;7.95;;;;;;;;;;5103602;22;20175;-74
2022/01/17 05:02:10;;;;;;;15.93;7.93;;;;;;;;;;5089482;28;20063;-73
2022/01/17 05:04:36;;;;;;;17.45;9.38;;;;;;;;;;5087866;28;20043;-73
2022/01/17 05:07:03;;;;;;;19.38;9.40;;;;;;;;;;5089902;28;20032;-73
2022/01/17 05:09:29;;;;;;;21.45;10.63;;;;;;;;;;5089093;28;20047;-73
2022/01/17 05:11:55;;;;;;;18.00;9.82;;;;;;;;;;5089771;28;20032;-74
2022/01/17 05:14:21;;;;;;;17.33;8.98;;;;;;;;;;5087069;28;20103;-73
2022/01/17 05:16:53;;;;;;;26.33;11.80;;;;;;;;;;5084254;28;20032;-73
2022/01/17 05:22:04;;;;;;;20.88;10.45;;;;;;;;;;5085262;28;20136;-73
2022/01/17 05:24:30;;;;;;;24.65;11.55;;;;;;;;;;5075459;28;20035;-73
2022/01/17 05:26:56;;;;;;;23.10;11.73;;;;;;;;;;5089549;28;20043;-73
2022/01/17 05:29:22;;;;;;;25.40;11.90;;;;;;;;;;5089013;28;20036;-73
2022/01/17 05:31:48;;;;;;;23.90;13.32;;;;;;;;;;5089068;28;20032;-73
2022/01/17 05:34:14;;;;;;;24.80;12.50;;;;;;;;;;5088588;28;20032;-73
2022/01/17 05:36:40;;;;;;;22.42;12.43;;;;;;;;;;5087773;28;20086;-73
2022/01/17 05:39:06;;;;;;;27.27;14.93;;;;;;;;;;5089205;28;20635;-73
2022/01/17 05:41:32;;;;;;;29.08;17.50;;;;;;;;;;5075829;28;20024;-73
2022/01/17 05:43:59;;;;;;;34.10;17.77;;;;;;;;;;5089319;28;20036;-73
2022/01/17 05:46:25;;;;;;;28.50;16.48;;;;;;;;;;5069909;28;20035;-73
2022/01/17 05:48:51;;;;;;;25.58;15.55;;;;;;;;;;5089353;28;20390;-73
2022/01/17 05:51:17;;;;;;;27.85;16.15;;;;;;;;;;5085914;28;20432;-73
2022/01/17 05:53:43;;;;;;;28.50;16.45;;;;;;;;;;5080463;28;20033;-73
2022/01/17 05:56:09;;;;;;;63.90;32.70;;;;;;;;;;5080617;28;20703;-73
2022/01/17 05:58:35;;;;;;;51.53;26.20;;;;;;;;;;5088262;28;20074;-73
2022/01/17 06:01:01;;;;;;;47.13;23.67;;;;;;;;;;5089059;28;20336;-73
2022/01/17 06:03:27;;;;;;;39.22;20.35;;;;;;;;;;5070780;28;20047;-73
2022/01/17 06:05:54;;;;;;;41.47;19.52;;;;;;;;;;5075027;28;20374;-73
2022/01/17 06:08:20;;;;;;;32.17;15.65;;;;;;;;;;5088206;28;20082;-74
2022/01/17 06:10:46;;;;;;;33.30;17.42;;;;;;;;;;5084913;28;20012;-73
2022/01/17 06:13:12;;;;;;;32.20;16.50;;;;;;;;;;5088861;28;20093;-73
2022/01/17 06:15:38;;;;;;;31.33;15.05;;;;;;;;;;5088585;28;20028;-73
2022/01/17 06:18:04;;;;;;;35.85;16.65;;;;;;;;;;5089539;28;20040;-73
2022/01/17 06:20:30;;;;;;;30.65;14.45;;;;;;;;;;5090793;28;20081;-74
2022/01/17 06:22:56;;;;;;;24.38;11.50;;;;;;;;;;5087174;28;20467;-73
2022/01/17 06:25:22;;;;;;;19.63;10.07;;;;;;;;;;5080876;28;20028;-73
2022/01/17 06:27:48;;;;;;;22.08;10.63;;;;;;;;;;5092037;28;20040;-73
2022/01/17 06:30:14;;;;;;;23.30;12.07;;;;;;;;;;5091576;28;20028;-73
2022/01/17 06:32:41;;;;;;;27.38;12.23;;;;;;;;;;5090792;28;20043;-73
2022/01/17 06:35:07;;;;;;;27.27;13.10;;;;;;;;;;5091617;28;20054;-73
2022/01/17 06:37:34;;;;;;;26.30;13.50;;;;;;;;;;5089036;28;20469;-73
2022/01/17 06:40:00;;;;;;;25.40;14.30;;;;;;;;;;5092312;28;20051;-73
2022/01/17 06:42:26;;;;;;;39.67;23.75;;;;;;;;;;5088510;28;20078;-73
2022/01/17 06:44:52;;;;;;;44.80;23.42;;;;;;;;;;5089206;28;20051;-73
2022/01/17 06:47:18;;;;;;;27.20;13.75;;;;;;;;;;5087888;28;20110;-73
2022/01/17 06:49:44;;;;;;;26.35;12.88;;;;;;;;;;5091555;28;20100;-73
2022/01/17 06:52:10;;;;;;;32.80;16.40;;;;;;;;;;5091581;28;20566;-73
2022/01/17 06:54:36;;;;;;;35.28;17.10;;;;;;;;;;5089741;28;20826;-73
2022/01/17 06:57:02;;;;;;;38.28;20.23;;;;;;;;;;5091686;28;20103;-72
2022/01/17 06:59:28;;;;;;;33.45;18.10;;;;;;;;;;5091559;28;20083;-72
2022/01/17 07:01:54;;;;;;;37.88;17.05;;;;;;;;;;5090722;28;20064;-72
2022/01/17 07:04:20;;;;;;;35.38;17.65;;;;;;;;;;5089750;28;20031;-72
2022/01/17 07:06:46;;;;;;;30.33;15.30;;;;;;;;;;5091027;28;20078;-73
2022/01/17 07:09:16;;;;;;;30.75;15.70;;;;;;;;;;5089888;28;20107;-74
2022/01/17 07:11:42;;;;;;;34.92;15.70;;;;;;;;;;5089162;28;20552;-73
2022/01/17 07:14:09;;;;;;;42.25;18.35;;;;;;;;;;5087849;28;20063;-73
2022/01/17 07:16:36;;;;;;;43.28;19.55;;;;;;;;;;5104047;28;20032;-71
2022/01/17 07:19:02;;;;;;;51.10;25.52;;;;;;;;;;5090474;28;20036;-73
2022/01/17 07:21:28;;;;;;;40.60;21.67;;;;;;;;;;5088095;28;20062;-73
2022/01/17 07:23:55;;;;;;;37.60;19.50;;;;;;;;;;5087761;28;20625;-73
2022/01/17 07:26:21;;;;;;;31.23;16.30;;;;;;;;;;5085480;28;20085;-74
2022/01/17 07:28:47;;;;;;;27.95;15.13;;;;;;;;;;5085198;28;20088;-75
2022/01/17 07:31:13;;;;;;;34.75;18.80;;;;;;;;;;5086380;28;20451;-74
2022/01/17 07:33:39;;;;;;;36.67;19.30;;;;;;;;;;5089757;28;20032;-74
2022/01/17 07:36:06;;;;;;;37.30;17.98;;;;;;;;;;5088190;28;20040;-74
2022/01/17 07:38:32;;;;;;;34.75;16.88;;;;;;;;;;5089949;28;20054;-74
2022/01/17 07:41:01;;;;;;;33.08;17.67;;;;;;;;;;5087232;28;20032;-73
2022/01/17 07:43:27;;;;;;;34.03;17.63;;;;;;;;;;5085673;28;20024;-74
2022/01/17 07:46:13;;;;;;;35.88;16.95;;;;;;;;;;5088550;28;20063;-74
2022/01/17 07:51:11;;;;;;;;;;;;;;;;;;5088303;28;20094;-74
2022/01/17 07:53:37;;;;;;;25.70;13.52;;;;;;;;;;5086283;28;20309;-75
2022/01/17 07:56:03;;;;;;;26.33;12.30;;;;;;;;;;5089337;28;20677;-72
2022/01/17 07:58:29;;;;;;;27.38;12.77;;;;;;;;;;5087360;28;20048;-72
2022/01/17 08:00:55;;;;;;;29.98;14.20;;;;;;;;;;5090030;28;20032;-72
2022/01/17 08:03:21;;;;;;;35.70;17.33;;;;;;;;;;5088454;28;20028;-72
2022/01/17 08:05:48;;;;;;;31.42;15.88;;;;;;;;;;5087326;28;20024;-74
2022/01/17 08:08:14;;;;;;;30.40;15.35;;;;;;;;;;5070174;28;20035;-73
2022/01/17 08:10:40;;;;;;;29.23;14.23;;;;;;;;;;5085676;28;20478;-74
2022/01/17 08:13:06;;;;;;;25.33;12.70;;;;;;;;;;5082019;28;20039;-74
2022/01/17 08:15:32;;;;;;;33.78;14.63;;;;;;;;;;5089648;28;20040;-74
2022/01/17 08:17:58;;;;;;;29.90;14.20;;;;;;;;;;5089388;28;20107;-74
2022/01/17 08:20:24;;;;;;;23.63;12.95;;;;;;;;;;5083705;28;20059;-74
2022/01/17 08:22:50;;;;;;;26.52;12.60;;;;;;;;;;5090078;28;20067;-74
2022/01/17 08:25:17;;;;;;;26.05;13.32;;;;;;;;;;5087642;28;20032;-74
2022/01/17 08:27:43;;;;;;;25.45;14.00;;;;;;;;;;5088869;28;20036;-74
2022/01/17 08:30:09;;;;;;;28.38;13.05;;;;;;;;;;5086201;28;20032;-74
2022/01/17 08:32:35;;;;;;;30.52;12.80;;;;;;;;;;5087877;28;20032;-74
2022/01/17 08:35:01;;;;;;;26.65;12.88;;;;;;;;;;5087758;28;20426;-74
2022/01/17 08:37:30;;;;;;;29.13;13.15;;;;;;;;;;5086906;28;20032;-74
2022/01/17 08:39:57;;;;;;;29.52;14.15;;;;;;;;;;5085601;28;20024;-74
2022/01/17 08:42:23;;;;;;;31.80;14.82;;;;;;;;;;5088033;28;20059;-74
2022/01/17 08:44:50;;;;;;;37.67;16.08;;;;;;;;;;5087950;28;20520;-74
2022/01/17 08:47:20;;;;;;;33.78;16.52;;;;;;;;;;5086590;28;20031;-74
2022/01/17 08:49:48;;;;;;;35.92;17.35;;;;;;;;;;5084967;28;20032;-74
2022/01/17 08:52:15;;;;;;;30.67;15.80;;;;;;;;;;5103046;28;20115;-74
2022/01/17 08:54:41;;;;;;;33.50;17.17;;;;;;;;;;5087879;28;20129;-74
2022/01/17 08:57:07;;;;;;;31.92;16.92;;;;;;;;;;5088682;28;20064;-74
2022/01/17 08:59:33;;;;;;;34.13;16.50;;;;;;;;;;5085952;28;20078;-73
2022/01/17 09:01:59;;;;;;;28.58;14.60;;;;;;;;;;5087146;28;20039;-74
2022/01/17 09:04:25;;;;;;;27.77;15.05;;;;;;;;;;5088022;28;20866;-74
2022/01/17 09:06:51;;;;;;;31.50;14.88;;;;;;;;;;5086821;28;20040;-74
2022/01/17 09:09:17;;;;;;;36.33;19.90;;;;;;;;;;5082505;28;20119;-74
2022/01/17 09:11:44;;;;;;;31.67;17.52;;;;;;;;;;5084335;28;20090;-74
2022/01/17 09:14:10;;;;;;;31.88;16.60;;;;;;;;;;5086063;28;20042;-75
2022/01/17 09:16:36;;;;;;;31.75;15.85;;;;;;;;;;5088651;28;20035;-74
2022/01/17 09:19:04;;;;;;;27.80;15.18;;;;;;;;;;5088279;28;20093;-74
2022/01/17 09:21:30;;;;;;;29.50;15.15;;;;;;;;;;5084551;28;20024;-75
2022/01/17 09:23:58;;;;;;;33.55;17.27;;;;;;;;;;5085224;28;20031;-75
2022/01/17 09:26:25;;;;;;;34.28;16.30;;;;;;;;;;5085321;28;20035;-75
2022/01/17 09:28:55;;;;;;;33.10;17.27;;;;;;;;;;5080397;28;20067;-74
2022/01/17 09:31:22;;;;;;;35.45;19.85;;;;;;;;;;5081735;28;20043;-75
2022/01/17 09:33:49;;;;;;;33.17;17.88;;;;;;;;;;5087168;28;20420;-74
2022/01/17 09:36:15;;;;;;;35.70;20.45;;;;;;;;;;5088309;28;20059;-74
2022/01/17 09:38:41;;;;;;;44.20;23.17;;;;;;;;;;5086853;28;20444;-74
2022/01/17 09:41:09;;;;;;;51.50;26.13;;;;;;;;;;5087019;28;20074;-74
2022/01/17 09:43:35;;;;;;;55.65;28.17;;;;;;;;;;5072546;28;20055;-74
2022/01/17 09:46:01;;;;;;;57.10;30.55;;;;;;;;;;5087421;28;20074;-75
2022/01/17 09:48:37;;;;;;;55.85;28.85;;;;;;;;;;5087656;28;20111;-74
2022/01/17 09:51:15;;;;;;;50.85;26.20;;;;;;;;;;5084711;28;20483;-74
2022/01/17 09:53:41;;;;;;;39.20;20.52;;;;;;;;;;5083361;28;20173;-75
2022/01/17 09:56:08;;;;;;;38.50;19.83;;;;;;;;;;5084696;28;20050;-75
2022/01/17 09:58:38;;;;;;;34.80;19.10;;;;;;;;;;5084166;28;20106;-75
2022/01/17 10:01:04;;;;;;;34.70;16.08;;;;;;;;;;5083678;28;20050;-74
2022/01/17 10:03:30;;;;;;;30.38;16.15;;;;;;;;;;5087345;28;20040;-75
2022/01/17 10:05:57;;;;;;;33.00;15.98;;;;;;;;;;5088370;28;20076;-74
2022/01/17 10:08:23;;;;;;;29.00;15.75;;;;;;;;;;5073354;28;20409;-75
2022/01/17 10:11:04;;;;;;;26.83;14.77;;;;;;;;;;5088498;28;20060;-75
2022/01/17 10:13:38;;;;;;;28.17;15.63;;;;;;;;;;5077857;28;20016;-75
2022/01/17 10:16:06;;;;;;;24.02;14.40;;;;;;;;;;5080043;28;20286;-75
2022/01/17 10:18:50;;;;;;;26.73;13.57;;;;;;;;;;5076932;28;20030;-75
2022/01/17 10:21:41;;;;;;;25.38;13.32;;;;;;;;;;5083949;28;20040;-74
2022/01/17 10:25:18;;;;;;;29.55;15.15;;;;;;;;;;5073853;28;20513;-75
2022/01/17 10:35:10;;;;;;;17.17;9.25;;;;;;;;;;5087052;28;20075;-74
2022/01/17 10:37:37;;;;;;;24.55;9.00;;;;;;;;;;5088083;28;20032;-75
2022/01/17 10:40:02;;;;;;;22.75;10.48;;;;;;;;;;5086851;28;20068;-74
2022/01/17 10:42:30;;;;;;;21.77;10.70;;;;;;;;;;5088332;28;20062;-75
2022/01/17 10:45:16;;;;;;;23.55;11.80;;;;;;;;;;5073133;28;20124;-74
2022/01/17 10:47:43;;;;;;;26.90;12.20;;;;;;;;;;5085320;28;20031;-74
2022/01/17 10:50:18;;;;;;;23.85;10.75;;;;;;;;;;5088398;28;20382;-74
2022/01/17 10:52:47;;;;;;;27.17;12.20;;;;;;;;;;5088715;28;20024;-74
2022/01/17 10:55:13;;;;;;;22.27;11.00;;;;;;;;;;5086232;28;20132;-74
2022/01/17 10:57:42;;;;;;;28.63;10.55;;;;;;;;;;5089379;28;20085;-74
2022/01/17 11:00:13;;;;;;;20.73;9.20;;;;;;;;;;5090395;28;20133;-74
2022/01/17 11:02:40;;;;;;;23.02;10.55;;;;;;;;;;5089679;28;20028;-74
2022/01/17 11:05:09;;;;;;;29.42;9.75;;;;;;;;;;5087214;28;20578;-74
2022/01/17 11:07:40;;;;;;;22.88;9.30;;;;;;;;;;5084639;28;20043;-74
2022/01/17 11:10:08;;;;;;;21.50;9.20;;;;;;;;;;5079939;28;20123;-74
2022/01/17 11:12:35;;;;;;;20.60;8.52;;;;;;;;;;5090195;28;20070;-74
2022/01/17 11:15:01;;;;;;;22.10;8.85;;;;;;;;;;5086754;28;20396;-74
2022/01/17 11:17:37;;;;;;;25.85;10.25;;;;;;;;;;5091033;28;20653;-74
2022/01/17 11:20:08;;;;;;;28.10;12.93;;;;;;;;;;5090073;28;20024;-74
2022/01/17 11:22:35;;;;;;;22.65;10.02;;;;;;;;;;5086066;28;20073;-74
2022/01/17 11:25:01;;;;;;;19.88;8.10;;;;;;;;;;5084573;28;20078;-74
2022/01/17 11:27:27;;;;;;;15.57;7.00;;;;;;;;;;5087907;28;20028;-74
2022/01/17 11:29:55;;;;;;;15.90;6.85;;;;;;;;;;5083949;28;20070;-74
2022/01/17 11:32:22;;;;;;;17.40;7.30;;;;;;;;;;5082818;28;20033;-74
2022/01/17 11:34:49;;;;;;;15.57;7.47;;;;;;;;;;5081000;28;20028;-74
2022/01/17 11:37:15;;;;;;;17.70;7.55;;;;;;;;;;5080389;28;20028;-74
2022/01/17 11:39:45;;;;;;;19.40;10.95;;;;;;;;;;5090437;28;20028;-74
2022/01/17 11:42:30;;;;;;;23.95;10.65;;;;;;;;;;5088160;28;20036;-74
2022/01/17 11:44:56;;;;;;;19.60;9.68;;;;;;;;;;5089124;28;20730;-74
2022/01/17 11:47:58;;;;;;;15.57;7.93;;;;;;;;;;5090349;28;20032;-74
2022/01/17 11:50:34;;;;;;;18.98;8.75;;;;;;;;;;5026185;28;20044;-74
2022/01/17 11:53:12;;;;;;;16.15;8.70;;;;;;;;;;5079400;28;20123;-74
2022/01/17 11:55:44;;;;;;;19.77;9.82;;;;;;;;;;5084324;28;20624;-74
2022/01/17 11:58:25;;;;;;;16.08;8.70;;;;;;;;;;5082138;28;20051;-74
2022/01/17 12:01:00;;;;;;;17.90;9.55;;;;;;;;;;5080846;28;20126;-74
2022/01/17 12:03:26;;;;;;;19.42;10.48;;;;;;;;;;5081287;28;20036;-74
2022/01/17 12:05:53;;;;;;;20.13;9.52;;;;;;;;;;5082767;28;20032;-74
2022/01/17 12:08:23;;;;;;;22.63;8.65;;;;;;;;;;5085949;28;20052;-75
2022/01/17 12:10:51;;;;;;;17.75;8.52;;;;;;;;;;5088383;28;20024;-74
2022/01/17 12:13:22;;;;;;;17.75;7.55;;;;;;;;;;5089221;28;20611;-74
2022/01/17 12:16:07;;;;;;;21.98;10.43;;;;;;;;;;5087566;28;20024;-74
2022/01/17 12:18:35;;;;;;;20.08;8.93;;;;;;;;;;5085857;28;20510;-74
2022/01/17 12:21:17;;;;;;;21.30;7.57;;;;;;;;;;5088709;28;20032;-74
2022/01/17 12:23:43;;;;;;;;;;;;;;;;;;5087348;28;20035;-74
2022/01/17 12:26:27;;;;;;;19.85;7.40;;;;;;;;;;5088937;28;20278;-73
2022/01/17 12:28:54;;;;;;;17.20;7.15;;;;;;;;;;5088047;28;20454;-74
2022/01/17 12:31:39;;;;;;;13.35;6.10;;;;;;;;;;5089637;28;20123;-74
2022/01/17 12:34:15;;;;;;;11.38;5.80;;;;;;;;;;5080269;28;20364;-74
2022/01/17 12:36:42;;;;;;;16.48;6.15;;;;;;;;;;5084685;28;20040;-74
2022/01/17 12:39:11;;;;;;;11.38;5.13;;;;;;;;;;5083969;28;20020;-74
2022/01/17 12:41:39;;;;;;;19.33;8.80;;;;;;;;;;5084196;28;20054;-74
2022/01/17 12:44:14;;;;;;;20.13;7.13;;;;;;;;;;5086758;28;20066;-74
2022/01/17 12:46:44;;;;;;;17.48;9.20;;;;;;;;;;5083637;28;20047;-74
2022/01/17 12:49:10;;;;;;;17.77;9.93;;;;;;;;;;5089977;28;20031;-74
2022/01/17 12:51:39;;;;;;;17.75;10.45;;;;;;;;;;5087620;28;20118;-74
2022/01/17 12:54:10;;;;;;;16.75;8.75;;;;;;;;;;5085504;28;20055;-74
2022/01/17 12:56:36;;;;;;;14.10;5.60;;;;;;;;;;5090351;28;20032;-74
2022/01/17 12:59:02;;;;;;;12.32;5.38;;;;;;;;;;5087163;28;20147;-74
2022/01/17 13:01:28;;;;;;;14.27;6.15;;;;;;;;;;5077049;28;20038;-74
2022/01/17 13:04:04;;;;;;;12.48;6.20;;;;;;;;;;5085839;28;20830;-74
2022/01/17 13:06:31;;;;;;;11.30;4.63;;;;;;;;;;5083178;28;21571;-74
2022/01/17 13:08:59;;;;;;;5.85;2.95;;;;;;;;;;5084205;28;20032;-74
2022/01/17 13:11:26;;;;;;;8.57;2.40;;;;;;;;;;5074720;28;20118;-74
2022/01/17 13:13:57;;;;;;;6.82;2.30;;;;;;;;;;5081325;28;20100;-74
2022/01/17 13:16:24;;;;;;;6.80;2.53;;;;;;;;;;5081747;28;20503;-74
2022/01/17 13:18:50;;;;;;;6.65;2.28;;;;;;;;;;5086100;28;20535;-74
2022/01/17 13:21:16;;;;;;;7.10;2.53;;;;;;;;;;5083495;28;20044;-74
2022/01/17 13:23:59;;;;;;;8.98;4.03;;;;;;;;;;5085640;28;20028;-74
2022/01/17 13:26:28;;;;;;;14.95;3.95;;;;;;;;;;5086505;28;20093;-74
2022/01/17 13:28:55;;;;;;;11.75;5.18;;;;;;;;;;5087939;28;20024;-74
2022/01/17 13:31:26;;;;;;;12.70;6.00;;;;;;;;;;5076104;28;20028;-74
2022/01/17 13:33:52;;;;;;;9.18;3.85;;;;;;;;;;5085145;28;20031;-74
2022/01/17 13:36:28;;;;;;;16.20;6.75;;;;;;;;;;5085012;28;20039;-74
2022/01/17 13:39:05;;;;;;;15.70;8.77;;;;;;;;;;5088672;28;20024;-75
2022/01/17 13:41:31;;;;;;;12.30;6.90;;;;;;;;;;5082461;28;20040;-74
2022/01/17 13:43:57;;;;;;;13.60;6.18;;;;;;;;;;5086760;28;20035;-74
2022/01/17 13:46:23;;;;;;;11.52;7.03;;;;;;;;;;5083139;28;20064;-74
2022/01/17 13:48:50;;;;;;;10.43;4.63;;;;;;;;;;5085021;28;20040;-74
2022/01/17 13:51:16;;;;;;;16.05;8.00;;;;;;;;;;5086844;28;20051;-74
2022/01/17 13:53:42;;;;;;;15.10;8.65;;;;;;;;;;5084591;28;20020;-74
2022/01/17 13:56:09;;;;;;;20.88;10.50;;;;;;;;;;5082787;28;20083;-75
2022/01/17 13:58:41;;;;;;;25.58;13.45;;;;;;;;;;5086390;28;20044;-74
2022/01/17 14:01:13;;;;;;;28.50;14.93;;;;;;;;;;5084479;28;20047;-74
2022/01/17 14:03:40;;;;;;;26.48;11.50;;;;;;;;;;5079085;28;20020;-75
2022/01/17 14:06:07;;;;;;;15.98;8.48;;;;;;;;;;5083004;28;20055;-74
2022/01/17 14:08:39;;;;;;;17.20;8.80;;;;;;;;;;5085718;28;20059;-74
2022/01/17 14:11:06;;;;;;;17.10;8.27;;;;;;;;;;5085308;28;20032;-74
2022/01/17 14:14:00;;;;;;;17.85;8.32;;;;;;;;;;5085276;28;20103;-74
2022/01/17 14:16:32;;;;;;;30.85;13.52;;;;;;;;;;5086629;28;20028;-74
2022/01/17 14:19:01;;;;;;;26.35;12.07;;;;;;;;;;5079078;28;20077;-74
2022/01/17 14:21:38;;;;;;;22.95;9.00;;;;;;;;;;5081011;28;20028;-74
2022/01/17 14:24:04;;;;;;;35.72;14.25;;;;;;;;;;5086496;28;20056;-74
2022/01/17 14:26:30;;;;;;;22.95;10.05;;;;;;;;;;5084716;28;20082;-74
2022/01/17 14:28:56;;;;;;;23.65;9.90;;;;;;;;;;5084532;28;20502;-75
2022/01/17 14:31:22;;;;;;;25.25;9.80;;;;;;;;;;5087547;28;20020;-75
2022/01/17 14:33:54;;;;;;;27.92;10.10;;;;;;;;;;5090251;28;20024;-75
2022/01/17 14:36:20;;;;;;;23.93;8.03;;;;;;;;;;5090761;28;20024;-75
2022/01/17 14:38:46;;;;;;;20.92;8.68;;;;;;;;;;5091822;28;20262;-74
2022/01/17 14:41:20;;;;;;;21.35;7.70;;;;;;;;;;5092824;28;20077;-75
2022/01/17 14:43:47;;;;;;;18.20;6.68;;;;;;;;;;5092045;28;20371;-75
2022/01/17 14:46:13;;;;;;;13.75;4.90;;;;;;;;;;5083675;28;20050;-75
2022/01/17 14:48:40;;;;;;;15.48;5.95;;;;;;;;;;5092083;28;20031;-74
2022/01/17 14:51:10;;;;;;;22.35;7.13;;;;;;;;;;5086606;28;20047;-75
2022/01/17 14:53:36;;;;;;;33.13;15.07;;;;;;;;;;5083224;28;20609;-74
2022/01/17 15:01:40;;;;;;;22.98;12.40;;;;;;;;;;5090883;28;20047;-75